sensor_id;sensor_type;location;lat;lon;timestamp;pressure;altitude;pressure_sealevel;temperature;humidity
75551;BME280;65071;53.082;18.218;2024-01-30T00:00:58;102822.14;;;-0.10;85.18
75551;BME280;65071;53.082;18.218;2024-01-30T00:03:45;102819.71;;;-0.13;85.38
75551;BME280;65071;53.082;18.218;2024-01-30T00:06:11;102820.61;;;-0.13;85.34
75551;BME280;65071;53.082;18.218;2024-01-30T00:08:39;102820.27;;;-0.15;85.53
75551;BME280;65071;53.082;18.218;2024-01-30T00:11:07;102822.06;;;-0.16;85.59
75551;BME280;65071;53.082;18.218;2024-01-30T00:13:34;102821.36;;;-0.16;85.89
75551;BME280;65071;53.082;18.218;2024-01-30T00:16:00;102816.73;;;-0.15;85.61
75551;BME280;65071;53.082;18.218;2024-01-30T00:18:27;102817.44;;;-0.14;85.55
75551;BME280;65071;53.082;18.218;2024-01-30T00:20:53;102809.46;;;-0.13;85.77
75551;BME280;65071;53.082;18.218;2024-01-30T00:23:20;102810.58;;;-0.16;85.66
75551;BME280;65071;53.082;18.218;2024-01-30T00:25:47;102813.82;;;-0.18;85.56
75551;BME280;65071;53.082;18.218;2024-01-30T00:28:13;102814.73;;;-0.19;85.59
75551;BME280;65071;53.082;18.218;2024-01-30T00:30:40;102816.67;;;-0.19;85.85
75551;BME280;65071;53.082;18.218;2024-01-30T00:33:08;102818.11;;;-0.21;85.64
75551;BME280;65071;53.082;18.218;2024-01-30T00:35:35;102816.91;;;-0.22;85.80
75551;BME280;65071;53.082;18.218;2024-01-30T00:38:02;102809.16;;;-0.23;85.76
75551;BME280;65071;53.082;18.218;2024-01-30T00:40:29;102810.80;;;-0.25;85.76
75551;BME280;65071;53.082;18.218;2024-01-30T00:42:56;102801.66;;;-0.28;85.44
75551;BME280;65071;53.082;18.218;2024-01-30T00:45:22;102798.23;;;-0.33;85.97
75551;BME280;65071;53.082;18.218;2024-01-30T00:47:50;102800.02;;;-0.34;85.72
75551;BME280;65071;53.082;18.218;2024-01-30T00:50:16;102801.34;;;-0.37;85.66
75551;BME280;65071;53.082;18.218;2024-01-30T00:52:43;102804.23;;;-0.41;85.80
75551;BME280;65071;53.082;18.218;2024-01-30T00:55:11;102802.89;;;-0.43;86.58
75551;BME280;65071;53.082;18.218;2024-01-30T00:57:38;102806.78;;;-0.43;86.92
75551;BME280;65071;53.082;18.218;2024-01-30T01:00:05;102811.55;;;-0.43;86.49
75551;BME280;65071;53.082;18.218;2024-01-30T01:02:33;102806.44;;;-0.43;86.46
75551;BME280;65071;53.082;18.218;2024-01-30T01:05:00;102811.40;;;-0.44;86.45
75551;BME280;65071;53.082;18.218;2024-01-30T01:07:27;102806.11;;;-0.45;86.41
75551;BME280;65071;53.082;18.218;2024-01-30T01:09:54;102803.11;;;-0.45;86.26
75551;BME280;65071;53.082;18.218;2024-01-30T01:12:20;102799.92;;;-0.45;86.09
75551;BME280;65071;53.082;18.218;2024-01-30T01:14:47;102799.79;;;-0.47;86.24
75551;BME280;65071;53.082;18.218;2024-01-30T01:17:13;102799.45;;;-0.48;86.16
75551;BME280;65071;53.082;18.218;2024-01-30T01:19:40;102798.80;;;-0.50;86.12
75551;BME280;65071;53.082;18.218;2024-01-30T01:22:06;102795.30;;;-0.52;86.05
75551;BME280;65071;53.082;18.218;2024-01-30T01:24:33;102789.86;;;-0.54;86.04
75551;BME280;65071;53.082;18.218;2024-01-30T01:27:00;102788.48;;;-0.55;86.00
75551;BME280;65071;53.082;18.218;2024-01-30T01:29:27;102789.73;;;-0.56;86.01
75551;BME280;65071;53.082;18.218;2024-01-30T01:31:55;102789.91;;;-0.56;86.08
75551;BME280;65071;53.082;18.218;2024-01-30T01:34:22;102783.59;;;-0.57;86.09
75551;BME280;65071;53.082;18.218;2024-01-30T01:36:50;102781.68;;;-0.59;86.10
75551;BME280;65071;53.082;18.218;2024-01-30T01:39:17;102781.89;;;-0.61;86.05
75551;BME280;65071;53.082;18.218;2024-01-30T01:41:44;102780.02;;;-0.64;86.05
75551;BME280;65071;53.082;18.218;2024-01-30T01:44:10;102779.86;;;-0.65;86.05
75551;BME280;65071;53.082;18.218;2024-01-30T01:46:37;102783.96;;;-0.67;86.04
75551;BME280;65071;53.082;18.218;2024-01-30T01:49:05;102786.45;;;-0.68;86.35
75551;BME280;65071;53.082;18.218;2024-01-30T01:51:34;102785.38;;;-0.67;86.50
75551;BME280;65071;53.082;18.218;2024-01-30T01:54:03;102786.23;;;-0.66;86.44
75551;BME280;65071;53.082;18.218;2024-01-30T01:56:31;102780.42;;;-0.67;86.51
75551;BME280;65071;53.082;18.218;2024-01-30T01:59:00;102781.31;;;-0.67;86.24
75551;BME280;65071;53.082;18.218;2024-01-30T02:01:32;102777.61;;;-0.67;86.16
75551;BME280;65071;53.082;18.218;2024-01-30T02:04:00;102781.31;;;-0.67;86.28
75551;BME280;65071;53.082;18.218;2024-01-30T02:06:27;102780.06;;;-0.66;86.38
75551;BME280;65071;53.082;18.218;2024-01-30T02:08:54;102780.42;;;-0.66;86.34
75551;BME280;65071;53.082;18.218;2024-01-30T02:11:22;102786.63;;;-0.67;86.24
75551;BME280;65071;53.082;18.218;2024-01-30T02:13:49;102786.09;;;-0.67;86.38
75551;BME280;65071;53.082;18.218;2024-01-30T02:16:16;102786.08;;;-0.67;86.33
75551;BME280;65071;53.082;18.218;2024-01-30T02:18:46;102788.55;;;-0.67;86.35
75551;BME280;65071;53.082;18.218;2024-01-30T02:21:15;102788.23;;;-0.68;86.19
75551;BME280;65071;53.082;18.218;2024-01-30T02:23:43;102788.77;;;-0.68;86.18
75551;BME280;65071;53.082;18.218;2024-01-30T02:26:10;102787.72;;;-0.69;86.13
75551;BME280;65071;53.082;18.218;2024-01-30T02:28:38;102785.63;;;-0.70;86.28
75551;BME280;65071;53.082;18.218;2024-01-30T02:31:05;102788.81;;;-0.71;86.21
75551;BME280;65071;53.082;18.218;2024-01-30T02:33:32;102783.91;;;-0.73;86.22
75551;BME280;65071;53.082;18.218;2024-01-30T02:35:58;102783.80;;;-0.76;86.00
75551;BME280;65071;53.082;18.218;2024-01-30T02:38:26;102784.54;;;-0.78;86.07
75551;BME280;65071;53.082;18.218;2024-01-30T02:40:53;102783.70;;;-0.80;86.08
75551;BME280;65071;53.082;18.218;2024-01-30T02:43:20;102787.41;;;-0.80;86.19
75551;BME280;65071;53.082;18.218;2024-01-30T02:45:46;102782.52;;;-0.82;86.26
75551;BME280;65071;53.082;18.218;2024-01-30T02:48:13;102782.34;;;-0.82;86.17
75551;BME280;65071;53.082;18.218;2024-01-30T02:50:40;102783.23;;;-0.83;86.24
75551;BME280;65071;53.082;18.218;2024-01-30T02:53:06;102784.14;;;-0.84;86.24
75551;BME280;65071;53.082;18.218;2024-01-30T02:55:33;102782.90;;;-0.84;86.27
75551;BME280;65071;53.082;18.218;2024-01-30T02:58:00;102788.20;;;-0.84;86.45
75551;BME280;65071;53.082;18.218;2024-01-30T03:00:26;102786.98;;;-0.84;86.82
75551;BME280;65071;53.082;18.218;2024-01-30T03:02:53;102784.34;;;-0.85;87.40
75551;BME280;65071;53.082;18.218;2024-01-30T03:05:20;102785.05;;;-0.85;87.84
75551;BME280;65071;53.082;18.218;2024-01-30T03:07:46;102774.79;;;-0.85;88.40
75551;BME280;65071;53.082;18.218;2024-01-30T03:10:13;102775.48;;;-0.84;88.01
75551;BME280;65071;53.082;18.218;2024-01-30T03:12:39;102772.10;;;-0.83;88.02
75551;BME280;65071;53.082;18.218;2024-01-30T03:15:06;102764.89;;;-0.84;87.63
75551;BME280;65071;53.082;18.218;2024-01-30T03:17:33;102768.45;;;-0.86;87.44
75551;BME280;65071;53.082;18.218;2024-01-30T03:19:59;102769.59;;;-0.89;87.45
75551;BME280;65071;53.082;18.218;2024-01-30T03:22:26;102773.56;;;-0.93;87.26
75551;BME280;65071;53.082;18.218;2024-01-30T03:24:53;102778.06;;;-0.97;87.07
75551;BME280;65071;53.082;18.218;2024-01-30T03:27:19;102783.73;;;-0.99;87.07
75551;BME280;65071;53.082;18.218;2024-01-30T03:29:46;102783.95;;;-1.00;87.29
75551;BME280;65071;53.082;18.218;2024-01-30T03:32:13;102780.39;;;-0.99;87.21
75551;BME280;65071;53.082;18.218;2024-01-30T03:34:39;102782.62;;;-0.96;87.42
75551;BME280;65071;53.082;18.218;2024-01-30T03:37:06;102779.77;;;-0.94;87.64
75551;BME280;65071;53.082;18.218;2024-01-30T03:39:33;102775.52;;;-0.94;87.61
75551;BME280;65071;53.082;18.218;2024-01-30T03:41:59;102773.98;;;-0.96;87.32
75551;BME280;65071;53.082;18.218;2024-01-30T03:44:26;102775.54;;;-0.95;87.36
75551;BME280;65071;53.082;18.218;2024-01-30T03:46:53;102779.23;;;-0.94;87.48
75551;BME280;65071;53.082;18.218;2024-01-30T03:49:19;102773.39;;;-0.93;87.80
75551;BME280;65071;53.082;18.218;2024-01-30T03:51:46;102776.88;;;-0.92;87.65
75551;BME280;65071;53.082;18.218;2024-01-30T03:54:14;102775.06;;;-0.89;87.88
75551;BME280;65071;53.082;18.218;2024-01-30T03:56:40;102772.72;;;-0.87;87.76
75551;BME280;65071;53.082;18.218;2024-01-30T03:59:07;102771.45;;;-0.85;87.79
75551;BME280;65071;53.082;18.218;2024-01-30T04:01:34;102765.40;;;-0.83;87.87
75551;BME280;65071;53.082;18.218;2024-01-30T04:04:00;102767.52;;;-0.83;87.62
75551;BME280;65071;53.082;18.218;2024-01-30T04:06:27;102768.73;;;-0.82;87.84
75551;BME280;65071;53.082;18.218;2024-01-30T04:08:53;102769.45;;;-0.83;87.71
75551;BME280;65071;53.082;18.218;2024-01-30T04:11:20;102772.11;;;-0.83;87.67
75551;BME280;65071;53.082;18.218;2024-01-30T04:13:46;102772.65;;;-0.84;87.89
75551;BME280;65071;53.082;18.218;2024-01-30T04:16:21;102773.06;;;-0.86;87.72
75551;BME280;65071;53.082;18.218;2024-01-30T04:18:48;102771.63;;;-0.85;87.94
75551;BME280;65071;53.082;18.218;2024-01-30T04:21:15;102769.84;;;-0.84;87.94
75551;BME280;65071;53.082;18.218;2024-01-30T04:23:42;102771.05;;;-0.83;87.87
75551;BME280;65071;53.082;18.218;2024-01-30T04:26:08;102772.09;;;-0.82;87.83
75551;BME280;65071;53.082;18.218;2024-01-30T04:28:34;102768.16;;;-0.80;87.93
75551;BME280;65071;53.082;18.218;2024-01-30T04:31:01;102764.27;;;-0.80;87.96
75551;BME280;65071;53.082;18.218;2024-01-30T04:33:27;102764.27;;;-0.80;88.04
75551;BME280;65071;53.082;18.218;2024-01-30T04:35:54;102760.70;;;-0.78;88.10
75551;BME280;65071;53.082;18.218;2024-01-30T04:38:20;102759.83;;;-0.78;87.95
75551;BME280;65071;53.082;18.218;2024-01-30T04:40:47;102759.49;;;-0.79;87.94
75551;BME280;65071;53.082;18.218;2024-01-30T04:43:13;102760.35;;;-0.79;87.94
75551;BME280;65071;53.082;18.218;2024-01-30T04:45:41;102759.83;;;-0.78;87.95
75551;BME280;65071;53.082;18.218;2024-01-30T04:48:07;102763.35;;;-0.78;87.97
75551;BME280;65071;53.082;18.218;2024-01-30T04:50:33;102765.11;;;-0.77;87.95
75551;BME280;65071;53.082;18.218;2024-01-30T04:53:00;102765.60;;;-0.76;87.88
75551;BME280;65071;53.082;18.218;2024-01-30T04:55:27;102769.15;;;-0.77;87.99
75551;BME280;65071;53.082;18.218;2024-01-30T04:57:53;102771.27;;;-0.76;87.89
75551;BME280;65071;53.082;18.218;2024-01-30T05:00:20;102768.96;;;-0.77;87.97
75551;BME280;65071;53.082;18.218;2024-01-30T05:02:46;102772.17;;;-0.77;87.88
75551;BME280;65071;53.082;18.218;2024-01-30T05:05:12;102770.77;;;-0.78;87.88
75551;BME280;65071;53.082;18.218;2024-01-30T05:07:41;102769.34;;;-0.77;88.05
75551;BME280;65071;53.082;18.218;2024-01-30T05:10:07;102771.10;;;-0.77;88.05
75551;BME280;65071;53.082;18.218;2024-01-30T05:12:34;102765.82;;;-0.78;87.97
75551;BME280;65071;53.082;18.218;2024-01-30T05:15:01;102767.92;;;-0.77;87.96
75551;BME280;65071;53.082;18.218;2024-01-30T05:17:27;102766.14;;;-0.76;88.20
75551;BME280;65071;53.082;18.218;2024-01-30T05:19:54;102765.06;;;-0.76;88.12
75551;BME280;65071;53.082;18.218;2024-01-30T05:22:20;102761.86;;;-0.75;88.32
75551;BME280;65071;53.082;18.218;2024-01-30T05:24:47;102760.62;;;-0.74;88.20
75551;BME280;65071;53.082;18.218;2024-01-30T05:27:13;102761.27;;;-0.72;88.37
75551;BME280;65071;53.082;18.218;2024-01-30T05:29:40;102758.75;;;-0.69;88.34
75551;BME280;65071;53.082;18.218;2024-01-30T05:32:10;102759.59;;;-0.67;88.21
75551;BME280;65071;53.082;18.218;2024-01-30T05:34:37;102759.92;;;-0.66;88.18
75551;BME280;65071;53.082;18.218;2024-01-30T05:37:03;102762.31;;;-0.63;88.23
75551;BME280;65071;53.082;18.218;2024-01-30T05:39:30;102762.80;;;-0.61;88.13
75551;BME280;65071;53.082;18.218;2024-01-30T05:41:59;102765.42;;;-0.60;88.11
75551;BME280;65071;53.082;18.218;2024-01-30T05:44:25;102769.63;;;-0.57;88.01
75551;BME280;65071;53.082;18.218;2024-01-30T05:46:52;102772.60;;;-0.56;88.11
75551;BME280;65071;53.082;18.218;2024-01-30T05:49:18;102773.58;;;-0.53;88.23
75551;BME280;65071;53.082;18.218;2024-01-30T05:51:44;102774.97;;;-0.51;88.13
75551;BME280;65071;53.082;18.218;2024-01-30T05:54:11;102778.48;;;-0.50;87.99
75551;BME280;65071;53.082;18.218;2024-01-30T05:56:37;102778.96;;;-0.49;87.90
75551;BME280;65071;53.082;18.218;2024-01-30T05:59:03;102780.02;;;-0.48;88.08
75551;BME280;65071;53.082;18.218;2024-01-30T06:01:29;102775.98;;;-0.49;88.00
75551;BME280;65071;53.082;18.218;2024-01-30T06:03:56;102778.66;;;-0.50;87.99
75551;BME280;65071;53.082;18.218;2024-01-30T06:06:22;102778.15;;;-0.51;87.96
75551;BME280;65071;53.082;18.218;2024-01-30T06:08:48;102776.58;;;-0.52;87.95
75551;BME280;65071;53.082;18.218;2024-01-30T06:11:14;102776.94;;;-0.52;87.96
75551;BME280;65071;53.082;18.218;2024-01-30T06:13:40;102776.95;;;-0.53;87.96
75551;BME280;65071;53.082;18.218;2024-01-30T06:16:10;102771.98;;;-0.52;88.00
75551;BME280;65071;53.082;18.218;2024-01-30T06:18:37;102772.14;;;-0.51;88.01
75551;BME280;65071;53.082;18.218;2024-01-30T06:21:04;102767.70;;;-0.50;88.10
75551;BME280;65071;53.082;18.218;2024-01-30T06:23:31;102769.59;;;-0.48;88.09
75551;BME280;65071;53.082;18.218;2024-01-30T06:25:57;102768.09;;;-0.44;88.19
75551;BME280;65071;53.082;18.218;2024-01-30T06:28:23;102774.82;;;-0.38;88.06
75551;BME280;65071;53.082;18.218;2024-01-30T06:30:50;102773.46;;;-0.32;88.11
75551;BME280;65071;53.082;18.218;2024-01-30T06:33:16;102773.55;;;-0.28;88.07
75551;BME280;65071;53.082;18.218;2024-01-30T06:35:43;102774.67;;;-0.23;88.04
75551;BME280;65071;53.082;18.218;2024-01-30T06:38:11;102776.14;;;-0.18;87.99
75551;BME280;65071;53.082;18.218;2024-01-30T06:40:39;102776.53;;;-0.12;88.15
75551;BME280;65071;53.082;18.218;2024-01-30T06:43:05;102771.62;;;-0.06;88.05
75551;BME280;65071;53.082;18.218;2024-01-30T06:45:31;102772.15;;;0.02;87.90
75551;BME280;65071;53.082;18.218;2024-01-30T06:47:58;102776.40;;;0.09;87.97
75551;BME280;65071;53.082;18.218;2024-01-30T06:50:24;102779.95;;;0.15;88.08
75551;BME280;65071;53.082;18.218;2024-01-30T06:52:51;102779.44;;;0.22;87.97
75551;BME280;65071;53.082;18.218;2024-01-30T06:55:18;102782.10;;;0.28;87.72
75551;BME280;65071;53.082;18.218;2024-01-30T06:57:44;102781.21;;;0.36;87.84
75551;BME280;65071;53.082;18.218;2024-01-30T07:00:11;102781.73;;;0.43;87.53
75551;BME280;65071;53.082;18.218;2024-01-30T07:02:38;102775.59;;;0.47;87.54
75551;BME280;65071;53.082;18.218;2024-01-30T07:05:04;102781.05;;;0.55;87.58
75551;BME280;65071;53.082;18.218;2024-01-30T07:07:30;102783.20;;;0.61;87.34
75551;BME280;65071;53.082;18.218;2024-01-30T07:09:57;102780.11;;;0.64;87.30
75551;BME280;65071;53.082;18.218;2024-01-30T07:12:24;102783.98;;;0.71;87.12
75551;BME280;65071;53.082;18.218;2024-01-30T07:14:52;102781.52;;;0.78;87.38
75551;BME280;65071;53.082;18.218;2024-01-30T07:17:18;102784.55;;;0.83;86.92
75551;BME280;65071;53.082;18.218;2024-01-30T07:19:44;102783.67;;;0.89;86.87
75551;BME280;65071;53.082;18.218;2024-01-30T07:22:11;102778.17;;;0.96;87.25
75551;BME280;65071;53.082;18.218;2024-01-30T07:24:42;102783.67;;;1.02;86.76
75551;BME280;65071;53.082;18.218;2024-01-30T07:27:11;102782.80;;;1.08;86.93
75551;BME280;65071;53.082;18.218;2024-01-30T07:29:37;102776.31;;;1.12;86.68
75551;BME280;65071;53.082;18.218;2024-01-30T07:34:30;102780.06;;;1.23;86.40
75551;BME280;65071;53.082;18.218;2024-01-30T07:36:57;102775.25;;;1.30;86.17
75551;BME280;65071;53.082;18.218;2024-01-30T07:39:23;102775.61;;;1.35;86.28
75551;BME280;65071;53.082;18.218;2024-01-30T07:41:49;102774.93;;;1.40;86.07
75551;BME280;65071;53.082;18.218;2024-01-30T07:44:16;102778.29;;;1.47;86.09
75551;BME280;65071;53.082;18.218;2024-01-30T07:46:43;102779.88;;;1.53;86.02
75551;BME280;65071;53.082;18.218;2024-01-30T07:49:09;102774.02;;;1.59;85.81
75551;BME280;65071;53.082;18.218;2024-01-30T07:51:36;102771.92;;;1.64;85.75
75551;BME280;65071;53.082;18.218;2024-01-30T07:54:03;102772.79;;;1.70;85.70
75551;BME280;65071;53.082;18.218;2024-01-30T07:56:29;102775.77;;;1.77;85.55
75551;BME280;65071;53.082;18.218;2024-01-30T07:58:55;102773.67;;;1.82;85.50
75551;BME280;65071;53.082;18.218;2024-01-30T08:01:22;102776.61;;;1.90;85.35
75551;BME280;65071;53.082;18.218;2024-01-30T08:03:48;102777.09;;;1.97;85.06
75551;BME280;65071;53.082;18.218;2024-01-30T08:06:14;102782.20;;;2.03;85.26
75551;BME280;65071;53.082;18.218;2024-01-30T08:08:41;102780.46;;;2.08;84.78
75551;BME280;65071;53.082;18.218;2024-01-30T08:11:07;102782.52;;;2.15;85.10
75551;BME280;65071;53.082;18.218;2024-01-30T08:13:34;102784.07;;;2.22;84.40
75551;BME280;65071;53.082;18.218;2024-01-30T08:16:00;102787.63;;;2.27;84.21
75551;BME280;65071;53.082;18.218;2024-01-30T08:18:27;102788.83;;;2.34;83.77
75551;BME280;65071;53.082;18.218;2024-01-30T08:20:53;102786.45;;;2.41;83.56
75551;BME280;65071;53.082;18.218;2024-01-30T08:23:20;102788.52;;;2.48;83.70
75551;BME280;65071;53.082;18.218;2024-01-30T08:25:46;102790.56;;;2.56;83.92
75551;BME280;65071;53.082;18.218;2024-01-30T08:28:12;102793.30;;;2.63;83.86
75551;BME280;65071;53.082;18.218;2024-01-30T08:30:39;102792.20;;;2.70;83.79
75551;BME280;65071;53.082;18.218;2024-01-30T08:33:06;102784.11;;;2.78;83.56
75551;BME280;65071;53.082;18.218;2024-01-30T08:35:32;102782.59;;;2.85;83.23
75551;BME280;65071;53.082;18.218;2024-01-30T08:37:59;102780.17;;;2.93;82.78
75551;BME280;65071;53.082;18.218;2024-01-30T08:40:26;102777.59;;;3.01;82.82
75551;BME280;65071;53.082;18.218;2024-01-30T08:42:52;102777.51;;;3.08;81.88
75551;BME280;65071;53.082;18.218;2024-01-30T08:45:18;102776.27;;;3.17;82.06
75551;BME280;65071;53.082;18.218;2024-01-30T08:47:45;102773.50;;;3.24;82.39
75551;BME280;65071;53.082;18.218;2024-01-30T08:50:11;102775.91;;;3.36;82.00
75551;BME280;65071;53.082;18.218;2024-01-30T08:52:37;102777.89;;;3.45;81.42
75551;BME280;65071;53.082;18.218;2024-01-30T08:55:04;102775.95;;;3.54;81.33
75551;BME280;65071;53.082;18.218;2024-01-30T08:57:30;102774.13;;;3.64;81.53
75551;BME280;65071;53.082;18.218;2024-01-30T08:59:57;102775.17;;;3.74;81.20
75551;BME280;65071;53.082;18.218;2024-01-30T09:02:23;102772.46;;;3.83;81.07
75551;BME280;65071;53.082;18.218;2024-01-30T09:04:50;102772.70;;;3.90;80.92
75551;BME280;65071;53.082;18.218;2024-01-30T09:07:17;102773.13;;;4.02;80.94
75551;BME280;65071;53.082;18.218;2024-01-30T09:09:44;102769.94;;;4.15;80.77
75551;BME280;65071;53.082;18.218;2024-01-30T09:12:11;102766.60;;;4.26;80.43
75551;BME280;65071;53.082;18.218;2024-01-30T09:14:38;102769.54;;;4.37;79.93
75551;BME280;65071;53.082;18.218;2024-01-30T09:19:33;102758.46;;;4.59;78.91
75551;BME280;65071;53.082;18.218;2024-01-30T09:21:59;102756.85;;;4.71;78.23
75551;BME280;65071;53.082;18.218;2024-01-30T09:24:26;102753.23;;;4.80;77.10
75551;BME280;65071;53.082;18.218;2024-01-30T09:26:52;102754.82;;;4.88;76.95
75551;BME280;65071;53.082;18.218;2024-01-30T09:29:19;102752.90;;;4.96;76.30
75551;BME280;65071;53.082;18.218;2024-01-30T09:31:45;102752.92;;;5.03;76.26
75551;BME280;65071;53.082;18.218;2024-01-30T09:36:40;102749.75;;;5.14;74.89
75551;BME280;65071;53.082;18.218;2024-01-30T09:39:06;102746.82;;;5.20;75.57
75551;BME280;65071;53.082;18.218;2024-01-30T09:41:36;102747.10;;;5.25;74.79
75551;BME280;65071;53.082;18.218;2024-01-30T09:44:08;102745.94;;;5.31;75.31
75551;BME280;65071;53.082;18.218;2024-01-30T09:46:36;102742.46;;;5.36;75.38
75551;BME280;65071;53.082;18.218;2024-01-30T09:49:02;102741.60;;;5.43;74.86
75551;BME280;65071;53.082;18.218;2024-01-30T09:51:30;102739.91;;;5.48;74.99
75551;BME280;65071;53.082;18.218;2024-01-30T09:53:56;102739.80;;;5.54;73.65
75551;BME280;65071;53.082;18.218;2024-01-30T09:56:23;102737.59;;;5.59;73.49
75551;BME280;65071;53.082;18.218;2024-01-30T09:58:52;102739.92;;;5.67;74.63
75551;BME280;65071;53.082;18.218;2024-01-30T10:01:19;102734.91;;;5.74;74.27
75551;BME280;65071;53.082;18.218;2024-01-30T10:03:46;102732.73;;;5.83;73.37
75551;BME280;65071;53.082;18.218;2024-01-30T10:06:14;102729.20;;;5.90;73.01
75551;BME280;65071;53.082;18.218;2024-01-30T10:08:59;102722.15;;;5.95;71.96
75551;BME280;65071;53.082;18.218;2024-01-30T10:11:26;102716.67;;;6.01;72.46
75551;BME280;65071;53.082;18.218;2024-01-30T10:13:52;102712.10;;;6.07;73.56
75551;BME280;65071;53.082;18.218;2024-01-30T10:16:19;102706.55;;;6.10;70.84
75551;BME280;65071;53.082;18.218;2024-01-30T10:18:46;102704.95;;;6.14;70.87
75551;BME280;65071;53.082;18.218;2024-01-30T10:21:12;102700.05;;;6.19;70.98
75551;BME280;65071;53.082;18.218;2024-01-30T10:23:39;102698.16;;;6.25;72.54
75551;BME280;65071;53.082;18.218;2024-01-30T10:26:07;102694.84;;;6.30;71.30
75551;BME280;65071;53.082;18.218;2024-01-30T10:28:33;102693.69;;;6.35;71.74
75551;BME280;65071;53.082;18.218;2024-01-30T10:31:00;102690.66;;;6.38;71.12
75551;BME280;65071;53.082;18.218;2024-01-30T10:33:27;102691.41;;;6.44;72.38
75551;BME280;65071;53.082;18.218;2024-01-30T10:36:00;102687.18;;;6.50;72.29
75551;BME280;65071;53.082;18.218;2024-01-30T10:38:29;102685.94;;;6.57;71.78
75551;BME280;65071;53.082;18.218;2024-01-30T10:40:57;102686.08;;;6.61;70.41
75551;BME280;65071;53.082;18.218;2024-01-30T10:43:31;102681.47;;;6.63;69.61
75551;BME280;65071;53.082;18.218;2024-01-30T10:46:20;102686.44;;;6.71;70.53
75551;BME280;65071;53.082;18.218;2024-01-30T10:48:50;102687.52;;;6.77;69.33
75551;BME280;65071;53.082;18.218;2024-01-30T10:51:22;102687.02;;;6.79;67.29
75551;BME280;65071;53.082;18.218;2024-01-30T10:53:49;102686.67;;;6.83;67.10
75551;BME280;65071;53.082;18.218;2024-01-30T10:56:16;102685.38;;;6.87;67.46
75551;BME280;65071;53.082;18.218;2024-01-30T10:58:42;102682.53;;;6.90;66.92
75551;BME280;65071;53.082;18.218;2024-01-30T11:01:09;102681.12;;;6.93;67.17
75551;BME280;65071;53.082;18.218;2024-01-30T11:03:36;102685.17;;;6.97;67.27
75551;BME280;65071;53.082;18.218;2024-01-30T11:06:03;102684.59;;;7.01;67.91
75551;BME280;65071;53.082;18.218;2024-01-30T11:08:32;102677.54;;;7.06;68.56
75551;BME280;65071;53.082;18.218;2024-01-30T11:10:58;102676.46;;;7.09;66.95
75551;BME280;65071;53.082;18.218;2024-01-30T11:13:29;102678.20;;;7.13;66.77
75551;BME280;65071;53.082;18.218;2024-01-30T11:16:00;102671.70;;;7.11;65.27
75551;BME280;65071;53.082;18.218;2024-01-30T11:18:30;102670.94;;;7.15;65.93
75551;BME280;65071;53.082;18.218;2024-01-30T11:20:57;102671.83;;;7.15;64.79
75551;BME280;65071;53.082;18.218;2024-01-30T11:23:25;102667.72;;;7.15;64.24
75551;BME280;65071;53.082;18.218;2024-01-30T11:25:54;102661.25;;;7.15;64.41
75551;BME280;65071;53.082;18.218;2024-01-30T11:28:23;102656.97;;;7.18;65.90
75551;BME280;65071;53.082;18.218;2024-01-30T11:30:50;102657.05;;;7.20;64.78
75551;BME280;65071;53.082;18.218;2024-01-30T11:33:28;102657.59;;;7.23;65.70
75551;BME280;65071;53.082;18.218;2024-01-30T11:35:58;102652.95;;;7.26;66.35
75551;BME280;65071;53.082;18.218;2024-01-30T11:38:33;102648.15;;;7.29;65.44
75551;BME280;65071;53.082;18.218;2024-01-30T11:41:00;102642.88;;;7.30;65.84
75551;BME280;65071;53.082;18.218;2024-01-30T11:43:27;102644.28;;;7.31;64.56
75551;BME280;65071;53.082;18.218;2024-01-30T11:45:54;102640.98;;;7.29;63.82
75551;BME280;65071;53.082;18.218;2024-01-30T11:48:23;102640.42;;;7.29;64.56
75551;BME280;65071;53.082;18.218;2024-01-30T11:50:49;102643.42;;;7.30;64.66
75551;BME280;65071;53.082;18.218;2024-01-30T11:53:17;102641.30;;;7.30;64.67
75551;BME280;65071;53.082;18.218;2024-01-30T11:55:49;102635.54;;;7.30;65.43
75551;BME280;65071;53.082;18.218;2024-01-30T11:58:16;102636.20;;;7.32;65.62
75551;BME280;65071;53.082;18.218;2024-01-30T12:00:42;102635.58;;;7.33;66.02
75551;BME280;65071;53.082;18.218;2024-01-30T12:03:11;102632.66;;;7.34;65.14
75551;BME280;65071;53.082;18.218;2024-01-30T12:05:37;102633.45;;;7.36;65.73
75551;BME280;65071;53.082;18.218;2024-01-30T12:08:15;102626.83;;;7.36;65.94
75551;BME280;65071;53.082;18.218;2024-01-30T12:10:42;102618.92;;;7.36;66.35
75551;BME280;65071;53.082;18.218;2024-01-30T12:13:08;102618.55;;;7.37;65.38
75551;BME280;65071;53.082;18.218;2024-01-30T12:15:35;102617.89;;;7.39;65.83
75551;BME280;65071;53.082;18.218;2024-01-30T12:18:06;102614.15;;;7.41;65.79
75551;BME280;65071;53.082;18.218;2024-01-30T12:20:32;102609.69;;;7.44;66.50
75551;BME280;65071;53.082;18.218;2024-01-30T12:22:59;102607.37;;;7.47;66.25
75551;BME280;65071;53.082;18.218;2024-01-30T12:25:25;102604.80;;;7.48;64.38
75551;BME280;65071;53.082;18.218;2024-01-30T12:27:52;102598.76;;;7.51;64.52
75551;BME280;65071;53.082;18.218;2024-01-30T12:30:19;102599.81;;;7.51;65.17
75551;BME280;65071;53.082;18.218;2024-01-30T12:32:47;102600.94;;;7.53;64.34
75551;BME280;65071;53.082;18.218;2024-01-30T12:35:17;102596.17;;;7.55;65.26
75551;BME280;65071;53.082;18.218;2024-01-30T12:37:44;102593.60;;;7.56;64.26
75551;BME280;65071;53.082;18.218;2024-01-30T12:40:11;102593.55;;;7.57;63.89
75551;BME280;65071;53.082;18.218;2024-01-30T12:42:41;102590.35;;;7.60;65.09
75551;BME280;65071;53.082;18.218;2024-01-30T12:45:09;102586.13;;;7.61;64.22
75551;BME280;65071;53.082;18.218;2024-01-30T12:47:36;102580.83;;;7.63;64.35
75551;BME280;65071;53.082;18.218;2024-01-30T12:50:02;102577.95;;;7.66;65.11
75551;BME280;65071;53.082;18.218;2024-01-30T12:52:29;102577.69;;;7.68;63.35